Time;durP1;ratioP1;P1;durP2;ratioP2;P2;SDS_P1;SDS_P2;PMS_P1;PMS_P2;Temp;Humidity;BMP_temperature;BMP_pressure;BME280_temperature;BME280_humidity;BME280_pressure;Samples;Min_cycle;Max_cycle;Signal;HPM_P1;HPM_P2
2023/03/22 00:01:18;;;;;;;3.65;2.25;;;20.60;66.20;;;;;;4785979;29;92193;-88
2023/03/22 00:03:44;;;;;;;3.38;2.05;;;20.60;66.00;;;;;;4802795;29;91316;-88
2023/03/22 00:06:11;;;;;;;2.47;1.98;;;20.60;66.70;;;;;;4804074;29;93631;-89
2023/03/22 00:18:42;;;;;;;2.53;1.77;;;20.60;66.00;;;;;;4802629;29;92328;-88
2023/03/22 00:21:12;;;;;;;3.72;2.17;;;20.60;65.90;;;;;;4802911;29;93626;-88
2023/03/22 00:23:38;;;;;;;1.88;1.50;;;20.60;66.20;;;;;;4794481;29;91985;-88
2023/03/22 00:26:04;;;;;;;2.80;1.45;;;20.50;66.00;;;;;;4801952;29;92514;-89
2023/03/22 00:45:59;;;;;;;3.05;1.77;;;20.50;66.10;;;;;;4802857;29;93620;-88
2023/03/22 00:48:25;;;;;;;2.08;1.83;;;20.50;66.00;;;;;;4802662;29;92026;-88
2023/03/22 00:50:50;;;;;;;4.10;1.70;;;20.50;66.10;;;;;;4803227;29;92717;-88
2023/03/22 00:53:16;;;;;;;2.67;1.85;;;20.50;66.10;;;;;;4786285;29;97120;-88
2023/03/22 00:55:42;;;;;;;2.28;1.48;;;20.40;66.00;;;;;;4800758;29;96205;-88
2023/03/22 00:58:07;;;;;;;3.55;1.77;;;20.40;66.00;;;;;;4785771;29;91946;-89
2023/03/22 01:00:33;;;;;;;2.90;1.92;;;20.40;66.00;;;;;;4803308;29;91724;-88
2023/03/22 01:03:02;;;;;;;2.20;1.73;;;20.40;65.90;;;;;;4779276;29;95156;-88
2023/03/22 01:11:55;;;;;;;3.58;1.73;;;20.40;66.00;;;;;;4801787;29;92352;-88
2023/03/22 01:14:21;;;;;;;2.28;1.45;;;20.40;65.90;;;;;;4785944;29;96750;-89
2023/03/22 01:16:56;;;;;;;3.00;1.42;;;20.40;66.00;;;;;;4753496;29;96320;-89
2023/03/22 01:19:26;;;;;;;3.58;1.67;;;20.40;66.10;;;;;;4784383;29;92129;-89
2023/03/22 01:21:52;;;;;;;2.40;1.60;;;20.30;65.90;;;;;;4782894;29;92620;-88
2023/03/22 01:36:24;;;;;;;2.53;1.58;;;20.30;65.90;;;;;;4789973;29;92550;-88
2023/03/22 01:38:50;;;;;;;2.40;1.58;;;20.30;65.90;;;;;;4783905;29;94662;-88
2023/03/22 01:41:16;;;;;;;2.28;1.73;;;20.30;65.90;;;;;;4782383;29;96803;-88
2023/03/22 01:43:42;;;;;;;3.17;1.80;;;20.20;65.90;;;;;;4784676;29;92129;-88
2023/03/22 01:49:33;;;;;;;2.03;1.38;;;20.20;65.90;;;;;;4784141;29;92252;-89
2023/03/22 01:52:10;;;;;;;1.73;1.30;;;20.20;65.80;;;;;;4760382;29;95120;-88
2023/03/22 01:54:44;;;;;;;3.33;1.95;;;20.20;65.90;;;;;;4773869;29;92159;-89
2023/03/22 01:57:12;;;;;;;2.78;1.70;;;20.20;65.80;;;;;;4782654;29;91764;-89
2023/03/22 01:59:41;;;;;;;2.73;1.30;;;20.20;65.90;;;;;;4782267;29;95723;-88
2023/03/22 02:08:51;;;;;;;2.13;1.33;;;20.10;65.90;;;;;;4787466;29;92357;-88
2023/03/22 02:11:24;;;;;;;2.35;1.35;;;20.10;65.90;;;;;;4785321;29;96618;-88
2023/03/22 02:14:02;;;;;;;2.28;1.52;;;20.10;65.80;;;;;;4785757;29;101087;-88
2023/03/22 02:16:48;;;;;;;3.28;1.75;;;20.10;65.90;;;;;;4801003;29;92075;-88
2023/03/22 02:23:04;;;;;;;2.10;1.65;;;20.10;65.60;;;;;;4785940;29;92588;-88
2023/03/22 02:25:33;;;;;;;2.55;1.40;;;20.10;65.90;;;;;;4793218;29;95545;-88
2023/03/22 02:28:25;;;;;;;1.43;1.20;;;20.00;65.80;;;;;;4786955;29;92328;-88
2023/03/22 02:31:13;;;;;;;2.15;1.50;;;20.10;65.90;;;;;;4786318;29;92516;-88
2023/03/22 02:33:47;;;;;;;6.45;1.30;;;20.10;65.70;;;;;;4792289;29;96049;-89
2023/03/22 02:36:29;;;;;;;2.45;1.50;;;20.10;65.60;;;;;;4800029;29;97180;-88
2023/03/22 02:39:20;;;;;;;2.45;1.55;;;20.10;65.80;;;;;;4792746;29;92484;-88
2023/03/22 02:42:18;;;;;;;2.58;1.67;;;20.00;65.80;;;;;;4792594;29;92355;-88
2023/03/22 02:45:26;;;;;;;2.67;1.55;;;20.00;65.70;;;;;;4786497;29;93733;-89
2023/03/22 02:48:17;;;;;;;1.98;1.58;;;20.00;65.70;;;;;;4786260;29;93400;-88
2023/03/22 02:50:51;;;;;;;2.17;1.65;;;20.00;65.80;;;;;;4729569;29;92720;-88
2023/03/22 02:53:23;;;;;;;1.77;1.10;;;20.00;65.70;;;;;;4731062;29;91668;-88
2023/03/22 02:55:59;;;;;;;1.63;1.35;;;20.00;65.80;;;;;;4730230;29;100217;-88
2023/03/22 02:58:28;;;;;;;1.42;1.15;;;20.00;65.70;;;;;;4721592;29;95092;-88
2023/03/22 03:01:00;;;;;;;2.28;1.27;;;20.00;65.80;;;;;;4729199;29;93366;-89
2023/03/22 03:03:29;;;;;;;1.83;1.25;;;20.00;65.80;;;;;;4729794;29;92156;-88
2023/03/22 03:05:59;;;;;;;2.23;1.33;;;20.00;65.70;;;;;;4729328;29;95953;-88
2023/03/22 03:12:08;;;;;;;2.08;1.50;;;20.00;65.70;;;;;;4730266;29;92751;-88
2023/03/22 03:14:34;;;;;;;2.33;1.38;;;19.90;65.70;;;;;;4721753;29;92194;-88
2023/03/22 03:17:25;;;;;;;2.28;1.50;;;19.90;65.70;;;;;;4715282;29;94651;-89
2023/03/22 03:20:16;;;;;;;2.25;1.55;;;19.90;65.60;;;;;;4729829;29;97405;-89
2023/03/22 03:22:48;;;;;;;2.83;1.73;;;19.90;65.60;;;;;;4694566;29;92194;-89
2023/03/22 03:25:17;;;;;;;1.80;1.40;;;19.90;65.70;;;;;;4703058;29;92633;-88
2023/03/22 03:28:03;;;;;;;1.65;1.30;;;19.90;65.60;;;;;;4721641;29;96754;-88
2023/03/22 03:31:07;;;;;;;1.92;1.38;;;19.90;65.70;;;;;;4756298;29;94765;-88
2023/03/22 03:33:36;;;;;;;1.58;1.48;;;19.90;65.70;;;;;;4740438;29;92851;-88
2023/03/22 03:36:07;;;;;;;1.65;1.23;;;19.90;65.60;;;;;;4752596;29;92067;-88
2023/03/22 03:38:37;;;;;;;1.75;1.25;;;19.90;65.70;;;;;;4753511;29;96053;-89
2023/03/22 03:41:08;;;;;;;1.90;1.15;;;19.90;65.70;;;;;;4756278;29;96685;-89
2023/03/22 03:43:36;;;;;;;1.45;1.13;;;19.80;65.60;;;;;;4754895;29;92505;-88
2023/03/22 03:46:01;;;;;;;1.30;1.08;;;19.80;65.70;;;;;;4741273;29;91705;-89
2023/03/22 03:48:30;;;;;;;1.80;1.38;;;19.80;65.70;;;;;;4755380;29;96062;-88
2023/03/22 03:50:57;;;;;;;1.67;1.40;;;19.80;65.60;;;;;;4756741;29;93178;-88
2023/03/22 03:53:23;;;;;;;1.95;1.52;;;19.80;65.70;;;;;;4757423;29;93341;-88
2023/03/22 03:55:49;;;;;;;1.63;1.40;;;19.80;65.60;;;;;;4756400;29;94162;-88
2023/03/22 04:05:17;;;;;;;1.95;1.25;;;19.80;65.50;;;;;;4786301;29;92197;-89
2023/03/22 04:07:43;;;;;;;1.88;1.45;;;19.80;65.60;;;;;;4783776;29;92427;-89
2023/03/22 04:10:08;;;;;;;1.83;1.52;;;19.80;65.60;;;;;;4785005;29;93762;-88
2023/03/22 04:12:36;;;;;;;1.67;1.40;;;19.70;65.60;;;;;;4785195;29;92760;-89
2023/03/22 04:15:05;;;;;;;1.25;1.05;;;19.70;65.60;;;;;;4784300;29;92573;-89
2023/03/22 04:17:40;;;;;;;1.92;1.20;;;19.70;65.60;;;;;;4776055;29;92004;-88
2023/03/22 04:20:09;;;;;;;2.20;1.30;;;19.70;65.50;;;;;;4775618;29;97673;-89
2023/03/22 04:22:37;;;;;;;2.08;1.50;;;19.70;65.60;;;;;;4783074;29;96870;-88
2023/03/22 04:25:12;;;;;;;1.77;1.38;;;19.70;65.60;;;;;;4798744;29;92140;-88
2023/03/22 04:28:19;;;;;;;1.85;0.98;;;19.70;65.60;;;;;;4783244;29;92571;-88
2023/03/22 04:30:50;;;;;;;2.13;1.40;;;19.70;65.60;;;;;;4785590;29;93476;-88
2023/03/22 04:33:16;;;;;;;1.77;1.30;;;19.70;65.60;;;;;;4791092;29;96497;-88
2023/03/22 04:35:45;;;;;;;1.50;1.23;;;19.70;65.60;;;;;;4782982;29;92529;-88
2023/03/22 04:38:11;;;;;;;1.58;1.20;;;19.70;65.50;;;;;;4799823;29;91214;-88
2023/03/22 04:40:37;;;;;;;1.65;1.20;;;19.70;65.60;;;;;;4776834;29;92738;-87
2023/03/22 04:43:03;;;;;;;2.00;1.55;;;19.70;65.60;;;;;;4767683;29;96328;-89
2023/03/22 04:45:31;;;;;;;1.95;1.52;;;19.70;65.50;;;;;;4768014;29;93315;-88
2023/03/22 04:47:58;;;;;;;2.65;1.75;;;19.60;65.50;;;;;;4771764;29;92456;-89
2023/03/22 04:50:23;;;;;;;2.15;1.33;;;19.60;65.50;;;;;;4786330;29;96937;-88
2023/03/22 04:52:49;;;;;;;1.40;1.10;;;19.60;65.30;;;;;;4785699;29;100037;-89
2023/03/22 04:55:25;;;;;;;2.08;1.45;;;19.60;65.50;;;;;;4786276;29;92027;-88
2023/03/22 05:04:40;;;;;;;2.22;1.40;;;19.60;65.40;;;;;;4803798;29;91376;-88
2023/03/22 05:07:05;;;;;;;1.65;1.50;;;19.60;65.40;;;;;;4786057;29;92768;-89
2023/03/22 05:09:32;;;;;;;2.05;1.25;;;19.60;65.30;;;;;;4802942;29;92639;-89
2023/03/22 05:12:02;;;;;;;1.77;1.15;;;19.60;65.50;;;;;;4784916;29;96854;-88
2023/03/22 05:14:28;;;;;;;1.95;1.20;;;19.60;65.50;;;;;;4775799;29;94348;-89
2023/03/22 05:16:53;;;;;;;1.33;1.20;;;19.60;65.50;;;;;;4801641;29;92478;-89
2023/03/22 05:19:23;;;;;;;1.90;1.20;;;19.60;65.50;;;;;;4785735;29;92585;-88
2023/03/22 05:21:56;;;;;;;1.73;1.30;;;19.60;65.50;;;;;;4785344;29;94824;-89
2023/03/22 05:24:22;;;;;;;1.20;1.00;;;19.50;65.40;;;;;;4785220;29;96314;-89
2023/03/22 05:26:52;;;;;;;1.80;1.23;;;19.50;65.20;;;;;;4803022;29;92077;-89
2023/03/22 05:29:18;;;;;;;2.08;1.30;;;19.50;65.40;;;;;;4801708;29;91458;-89
2023/03/22 05:31:44;;;;;;;1.92;1.20;;;19.50;65.20;;;;;;4785204;29;96284;-89
2023/03/22 05:34:10;;;;;;;1.67;1.13;;;19.50;65.20;;;;;;4785429;29;95846;-89
2023/03/22 05:36:36;;;;;;;2.33;1.42;;;19.50;65.10;;;;;;4788352;29;93588;-89
2023/03/22 05:45:54;;;;;;;1.83;1.27;;;19.50;65.10;;;;;;4805933;29;91876;-89
2023/03/22 05:48:20;;;;;;;2.00;1.10;;;19.50;65.40;;;;;;4804163;29;92555;-88
2023/03/22 05:50:46;;;;;;;1.30;1.02;;;19.50;66.00;;;;;;4805484;29;91993;-89
2023/03/22 05:53:12;;;;;;;1.30;1.10;;;19.50;65.10;;;;;;4789168;29;96457;-88
2023/03/22 05:55:37;;;;;;;2.80;1.60;;;19.50;65.20;;;;;;4806136;29;93446;-89
2023/03/22 05:58:23;;;;;;;1.55;1.10;;;19.50;65.30;;;;;;4781068;29;92110;-89
2023/03/22 06:00:50;;;;;;;1.58;1.15;;;19.50;65.30;;;;;;4803625;29;92210;-89
2023/03/22 06:03:17;;;;;;;2.05;1.30;;;19.50;65.40;;;;;;4804871;29;94743;-90
2023/03/22 06:05:42;;;;;;;1.75;1.20;;;19.50;65.20;;;;;;4776885;29;97312;-89
2023/03/22 06:08:08;;;;;;;1.85;1.25;;;19.50;65.40;;;;;;4783560;29;92454;-89
2023/03/22 06:14:14;;;;;;;1.90;1.27;;;19.50;65.30;;;;;;4805639;29;96828;-88
2023/03/22 06:16:40;;;;;;;1.70;1.00;;;19.50;65.40;;;;;;4787799;29;95168;-89
2023/03/22 06:19:06;;;;;;;1.95;1.10;;;19.50;65.20;;;;;;4802545;29;92055;-89
2023/03/22 06:21:31;;;;;;;1.38;0.90;;;19.40;65.40;;;;;;4805211;29;91680;-88
2023/03/22 06:23:57;;;;;;;2.80;1.55;;;19.50;65.40;;;;;;4787193;29;96821;-89
2023/03/22 06:26:22;;;;;;;1.33;1.00;;;19.40;65.20;;;;;;4805937;29;93103;-89
2023/03/22 06:28:48;;;;;;;1.48;1.10;;;19.50;65.20;;;;;;4803075;29;93444;-88
2023/03/22 06:31:14;;;;;;;1.17;1.08;;;19.40;65.10;;;;;;4804183;29;92668;-89
2023/03/22 06:38:08;;;;;;;2.50;1.27;;;19.40;65.10;;;;;;4751363;29;92189;-89
2023/03/22 06:40:34;;;;;;;1.35;1.02;;;19.40;65.00;;;;;;4754966;29;92492;-89
2023/03/22 06:43:00;;;;;;;1.63;1.02;;;19.40;65.10;;;;;;4724872;29;92529;-87
2023/03/22 06:45:26;;;;;;;1.30;1.05;;;19.40;65.10;;;;;;4738696;29;93197;-88
2023/03/22 06:47:52;;;;;;;4.63;1.25;;;19.40;65.10;;;;;;4730932;29;94548;-89
2023/03/22 06:50:17;;;;;;;1.77;1.30;;;19.50;64.80;;;;;;4740335;29;92153;-87
2023/03/22 06:56:23;;;;;;;3.45;1.50;;;19.60;64.80;;;;;;4738945;29;97660;-88
2023/03/22 06:58:50;;;;;;;4.30;1.85;;;19.60;64.50;;;;;;4723900;29;98659;-88
2023/03/22 07:01:17;;;;;;;7.18;2.20;;;19.70;64.20;;;;;;4720195;29;92140;-88
2023/03/22 07:03:43;;;;;;;6.85;2.85;;;19.80;63.60;;;;;;4713154;29;92325;-87
2023/03/22 07:06:09;;;;;;;9.23;2.80;;;19.90;63.70;;;;;;4729317;29;93451;-88
2023/03/22 07:08:36;;;;;;;10.77;3.05;;;20.00;63.70;;;;;;4722055;29;93228;-87
2023/03/22 07:11:03;;;;;;;8.35;3.40;;;20.10;63.70;;;;;;4743188;29;92550;-88
2023/03/22 07:13:29;;;;;;;9.65;3.53;;;20.20;63.70;;;;;;4730897;29;91817;-87
2023/03/22 07:15:56;;;;;;;11.05;3.80;;;20.30;63.40;;;;;;4745349;29;96638;-89
2023/03/22 07:18:22;;;;;;;12.30;3.60;;;20.20;63.80;;;;;;4730492;29;92960;-88
2023/03/22 07:20:48;;;;;;;10.38;3.83;;;20.30;63.90;;;;;;4722112;29;93189;-86
2023/03/22 07:23:15;;;;;;;9.60;3.92;;;20.30;64.10;;;;;;4730128;29;92538;-89
2023/03/22 07:25:41;;;;;;;11.77;3.90;;;20.40;64.10;;;;;;4743976;29;97182;-88
2023/03/22 07:28:09;;;;;;;12.57;3.60;;;20.30;64.30;;;;;;4729586;29;93317;-88
2023/03/22 07:30:59;;;;;;;10.55;3.55;;;20.30;64.60;;;;;;4693247;29;92609;-87
2023/03/22 07:33:24;;;;;;;10.95;3.85;;;20.20;64.60;;;;;;4701255;29;92652;-90
2023/03/22 07:35:50;;;;;;;9.55;3.45;;;20.20;64.70;;;;;;4702736;29;95901;-90
2023/03/22 07:38:16;;;;;;;8.55;3.50;;;20.20;65.00;;;;;;4703083;29;93499;-90
2023/03/22 07:40:41;;;;;;;10.30;3.30;;;20.20;65.00;;;;;;4678873;30;92460;-87
2023/03/22 07:43:10;;;;;;;7.82;3.50;;;20.20;65.00;;;;;;4695798;29;92866;-89
2023/03/22 07:45:36;;;;;;;10.20;3.42;;;20.20;64.90;;;;;;4692032;29;98697;-89
2023/03/22 07:48:21;;;;;;;9.98;3.63;;;20.30;64.70;;;;;;4688610;30;94443;-89
2023/03/22 07:50:47;;;;;;;12.60;3.28;;;20.30;64.80;;;;;;4685774;30;92413;-90
2023/03/22 07:53:14;;;;;;;12.57;3.45;;;20.30;64.70;;;;;;4701267;29;92672;-90
2023/03/22 07:55:41;;;;;;;12.00;3.63;;;20.20;65.00;;;;;;4684016;29;97082;-90
2023/03/22 07:58:08;;;;;;;9.07;3.22;;;20.20;65.00;;;;;;4652575;29;96440;-91
2023/03/22 08:00:36;;;;;;;8.35;3.22;;;20.20;65.00;;;;;;4695725;29;92291;-91
2023/03/22 08:16:29;;;;;;;9.75;3.13;;;20.30;64.70;;;;;;4775760;29;92565;-89
2023/03/22 08:18:55;;;;;;;8.23;3.00;;;20.40;64.60;;;;;;4775768;29;93597;-91
2023/03/22 08:21:21;;;;;;;9.48;3.40;;;20.50;64.50;;;;;;4775447;29;97146;-88
2023/03/22 08:23:46;;;;;;;5.50;2.97;;;20.50;64.10;;;;;;4774933;29;92372;-86
2023/03/22 08:26:14;;;;;;;11.73;2.90;;;20.60;64.30;;;;;;4778209;29;92465;-88
2023/03/22 08:35:26;;;;;;;35.20;6.70;;;20.60;63.80;;;;;;4777250;29;92595;-92
2023/03/22 08:37:55;;;;;;;21.88;5.75;;;20.60;63.70;;;;;;4776808;29;92198;-92
2023/03/22 08:40:21;;;;;;;;;;;20.60;64.00;;;;;;4765559;29;97748;-89
2023/03/22 08:42:48;;;;;;;18.35;5.68;;;20.60;63.50;;;;;;4758104;29;94668;-91
2023/03/22 08:45:14;;;;;;;16.95;4.35;;;20.60;64.00;;;;;;4757870;29;92963;-88
2023/03/22 08:47:40;;;;;;;19.48;5.22;;;20.60;63.80;;;;;;4756001;29;92576;-88
2023/03/22 08:53:28;;;;;;;25.60;6.18;;;20.70;63.90;;;;;;4784854;29;96398;-89
2023/03/22 08:55:56;;;;;;;22.17;6.75;;;20.70;64.30;;;;;;4768944;29;92124;-89
2023/03/22 08:58:22;;;;;;;26.27;7.18;;;20.70;64.50;;;;;;4758781;29;91849;-89
2023/03/22 09:00:48;;;;;;;22.08;6.75;;;20.70;64.70;;;;;;4768382;29;96466;-88
2023/03/22 09:03:15;;;;;;;22.10;6.82;;;20.70;64.70;;;;;;4757649;29;96020;-87
2023/03/22 09:05:41;;;;;;;20.58;6.43;;;20.70;64.80;;;;;;4767670;29;93223;-89
2023/03/22 09:11:28;;;;;;;28.30;6.95;;;20.80;64.90;;;;;;4783690;29;96727;-87
2023/03/22 09:13:54;;;;;;;21.45;6.25;;;20.80;64.80;;;;;;4769063;29;95392;-91
2023/03/22 09:16:19;;;;;;;28.85;6.57;;;20.80;65.10;;;;;;4768161;29;92501;-85
2023/03/22 09:18:45;;;;;;;25.42;6.57;;;20.80;65.00;;;;;;4782372;29;92637;-87
2023/03/22 09:21:11;;;;;;;20.02;5.82;;;20.70;65.40;;;;;;4764701;29;95519;-87
2023/03/22 09:23:37;;;;;;;22.27;6.10;;;20.70;65.70;;;;;;4767502;29;93382;-88
2023/03/22 09:26:16;;;;;;;24.83;7.10;;;20.70;65.80;;;;;;4768498;29;92133;-88
2023/03/22 09:28:44;;;;;;;27.38;6.63;;;20.70;65.90;;;;;;4784465;29;92600;-87
2023/03/22 09:31:25;;;;;;;24.65;6.60;;;20.70;65.70;;;;;;4768339;29;97331;-88
2023/03/22 09:33:51;;;;;;;31.02;7.47;;;20.60;66.10;;;;;;4783916;29;93882;-87
2023/03/22 09:36:16;;;;;;;33.92;7.80;;;20.70;66.20;;;;;;4764855;29;92510;-89
2023/03/22 09:38:42;;;;;;;28.00;7.13;;;20.60;66.00;;;;;;4755105;29;92588;-90
2023/03/22 09:41:17;;;;;;;26.60;6.70;;;20.60;65.40;;;;;;4808391;29;96738;-91
2023/03/22 09:44:04;;;;;;;27.73;6.40;;;20.60;65.70;;;;;;4793108;29;95144;-90
2023/03/22 09:46:34;;;;;;;19.40;6.60;;;20.50;65.20;;;;;;4796689;29;92471;-91
2023/03/22 09:49:05;;;;;;;20.92;5.88;;;20.50;65.00;;;;;;4799357;29;92326;-92
2023/03/22 09:51:36;;;;;;;18.77;5.93;;;20.60;65.10;;;;;;4791910;29;95992;-87
2023/03/22 10:10:51;;;;;;;21.27;6.28;;;20.60;65.60;;;;;;4793047;29;92494;-87
2023/03/22 10:13:18;;;;;;;17.95;5.65;;;20.60;65.40;;;;;;4806046;29;92847;-87
2023/03/22 10:15:59;;;;;;;16.27;6.05;;;20.50;65.20;;;;;;4806343;29;95489;-88
2023/03/22 10:18:28;;;;;;;19.63;6.28;;;20.50;65.30;;;;;;4776765;29;96489;-88
2023/03/22 10:21:02;;;;;;;;;;;20.50;65.20;;;;;;4792509;29;92816;-87
2023/03/22 10:23:38;;;;;;;28.40;7.78;;;20.50;65.30;;;;;;4796442;29;92761;-86
2023/03/22 10:26:05;;;;;;;16.85;5.38;;;20.60;65.40;;;;;;4810683;29;96036;-87
2023/03/22 10:28:39;;;;;;;16.35;5.22;;;20.60;65.50;;;;;;4793344;29;95041;-86
2023/03/22 10:31:09;;;;;;;18.58;6.07;;;20.60;65.60;;;;;;4793269;29;92285;-86
2023/03/22 10:33:49;;;;;;;19.60;6.50;;;20.60;65.50;;;;;;4793830;29;92077;-89
2023/03/22 10:36:17;;;;;;;18.20;5.78;;;20.60;65.60;;;;;;4793930;29;96842;-88
2023/03/22 10:38:48;;;;;;;16.67;5.85;;;20.60;65.80;;;;;;4775895;29;96483;-91
2023/03/22 10:41:17;;;;;;;18.77;5.35;;;20.70;65.90;;;;;;4778054;29;92544;-88
2023/03/22 10:43:47;;;;;;;19.60;5.63;;;20.80;65.10;;;;;;4767522;29;91166;-88
2023/03/22 10:49:57;;;;;;;20.52;5.55;;;20.70;65.70;;;;;;4771014;29;91996;-87
2023/03/22 10:52:46;;;;;;;16.52;5.28;;;20.70;65.40;;;;;;4772122;29;93182;-88
2023/03/22 10:55:14;;;;;;;12.55;4.80;;;20.80;65.00;;;;;;4763465;29;92442;-88
2023/03/22 10:57:43;;;;;;;15.07;4.68;;;20.90;64.80;;;;;;4753531;29;96130;-88
2023/03/22 11:00:30;;;;;;;14.90;4.88;;;21.00;64.70;;;;;;4747600;29;93583;-87
2023/03/22 11:02:59;;;;;;;13.02;4.85;;;21.10;64.50;;;;;;4722675;29;92566;-88
2023/03/22 11:05:27;;;;;;;17.52;4.40;;;21.20;64.30;;;;;;4722650;29;92175;-88
2023/03/22 11:07:53;;;;;;;12.60;4.90;;;21.20;64.20;;;;;;4747598;29;93820;-87
2023/03/22 11:10:31;;;;;;;15.07;5.47;;;21.30;64.00;;;;;;4747772;29;97086;-88
2023/03/22 11:13:06;;;;;;;12.50;4.40;;;21.30;63.70;;;;;;4732290;29;92079;-88
2023/03/22 11:15:34;;;;;;;13.93;4.57;;;21.30;63.80;;;;;;4732376;29;92452;-88
2023/03/22 11:18:04;;;;;;;12.02;4.80;;;21.20;63.80;;;;;;4747182;29;94146;-88
2023/03/22 11:20:33;;;;;;;15.45;5.38;;;21.20;63.80;;;;;;4724925;29;95985;-89
2023/03/22 11:27:00;;;;;;;17.70;4.97;;;21.30;63.70;;;;;;4739321;29;92891;-93
2023/03/22 11:29:26;;;;;;;15.85;5.18;;;21.20;63.50;;;;;;4750162;29;97220;-90
2023/03/22 11:32:04;;;;;;;14.90;4.97;;;21.20;63.70;;;;;;4725368;29;96066;-89
2023/03/22 11:34:30;;;;;;;17.52;5.00;;;21.20;63.80;;;;;;4746478;29;92710;-90
2023/03/22 11:36:59;;;;;;;12.82;4.80;;;21.20;64.00;;;;;;4759103;29;91251;-90
2023/03/22 11:39:27;;;;;;;14.02;4.45;;;21.20;64.30;;;;;;4767634;29;93654;-92
2023/03/22 11:45:35;;;;;;;12.20;4.18;;;21.20;64.80;;;;;;4798536;29;93679;-88
2023/03/22 11:48:04;;;;;;;13.55;4.38;;;21.30;64.20;;;;;;4773431;29;92873;-84
2023/03/22 11:50:34;;;;;;;19.05;4.78;;;21.30;64.20;;;;;;4761448;29;95440;-87
2023/03/22 11:53:06;;;;;;;13.05;4.82;;;21.40;64.00;;;;;;4787657;29;95159;-86
2023/03/22 11:55:34;;;;;;;12.88;3.88;;;21.50;64.10;;;;;;4778488;29;92046;-88
2023/03/22 11:58:02;;;;;;;19.53;3.63;;;21.60;63.80;;;;;;4780656;29;92153;-87
2023/03/22 12:00:45;;;;;;;18.45;4.40;;;21.70;63.60;;;;;;4779180;29;96374;-88
2023/03/22 12:03:17;;;;;;;15.73;4.25;;;21.80;64.10;;;;;;4780330;29;95167;-89
2023/03/22 12:05:47;;;;;;;14.77;4.32;;;21.80;63.90;;;;;;4780123;29;92652;-88
2023/03/22 12:08:25;;;;;;;15.50;4.40;;;21.80;63.70;;;;;;4766798;29;92931;-91
2023/03/22 12:11:16;;;;;;;12.07;3.33;;;21.80;63.80;;;;;;4776611;29;100185;-89
2023/03/22 12:13:45;;;;;;;16.33;4.55;;;21.80;64.00;;;;;;4686926;29;97238;-88
2023/03/22 12:16:14;;;;;;;17.08;4.20;;;21.80;64.20;;;;;;4715431;29;92113;-87
2023/03/22 12:18:46;;;;;;;14.70;3.97;;;21.80;64.40;;;;;;4709785;29;92219;-88
2023/03/22 12:21:12;;;;;;;16.15;4.10;;;21.80;63.80;;;;;;4686501;29;95920;-87
2023/03/22 12:23:40;;;;;;;14.63;3.97;;;21.70;64.00;;;;;;4701900;29;92019;-88
2023/03/22 12:26:18;;;;;;;12.45;3.78;;;21.70;65.10;;;;;;4695679;29;92714;-88
2023/03/22 12:29:13;;;;;;;15.65;4.47;;;21.80;64.80;;;;;;4686149;29;91756;-87
2023/03/22 12:31:50;;;;;;;14.73;4.35;;;21.80;65.00;;;;;;4703224;29;92889;-86
2023/03/22 12:38:00;;;;;;;10.48;3.63;;;21.70;63.30;;;;;;4711345;29;93503;-89
2023/03/22 12:40:38;;;;;;;12.23;3.50;;;21.60;64.30;;;;;;4727175;29;92609;-87
2023/03/22 12:43:12;;;;;;;8.02;3.25;;;21.60;64.20;;;;;;4721062;29;95981;-89
2023/03/22 12:45:44;;;;;;;11.07;3.60;;;21.70;64.20;;;;;;4728468;29;93395;-89
2023/03/22 12:48:44;;;;;;;12.23;3.40;;;21.70;64.60;;;;;;4737312;29;92256;-89
2023/03/22 12:51:13;;;;;;;10.88;3.28;;;21.70;64.80;;;;;;4707814;29;92122;-87
2023/03/22 12:53:51;;;;;;;;;;;21.70;64.50;;;;;;4730124;29;93490;-88
2023/03/22 12:56:28;;;;;;;8.15;3.00;;;21.80;64.80;;;;;;4739259;29;92939;-89
2023/03/22 12:59:03;;;;;;;8.77;3.10;;;21.80;64.60;;;;;;4714669;29;92151;-89
2023/03/22 13:01:32;;;;;;;11.18;3.42;;;21.70;64.70;;;;;;4737637;29;92854;-88
2023/03/22 13:03:58;;;;;;;9.15;3.25;;;21.70;64.90;;;;;;4736843;29;95922;-88
2023/03/22 13:07:06;;;;;;;10.27;3.25;;;21.80;64.60;;;;;;4720852;29;97139;-88
2023/03/22 13:09:47;;;;;;;24.37;3.83;;;21.80;64.50;;;;;;4690624;30;92281;-88
2023/03/22 13:12:15;;;;;;;8.57;2.83;;;21.90;64.10;;;;;;4670469;30;92399;-90
2023/03/22 13:14:59;;;;;;;8.33;2.70;;;22.00;63.90;;;;;;4691859;30;96219;-88
2023/03/22 13:17:26;;;;;;;9.98;2.92;;;22.10;63.60;;;;;;4691242;30;92732;-91
2023/03/22 13:20:10;;;;;;;6.10;2.70;;;22.10;63.90;;;;;;4669623;30;92039;-90
2023/03/22 13:22:40;;;;;;;11.48;3.00;;;22.20;63.40;;;;;;4682054;30;91626;-90
2023/03/22 13:25:12;;;;;;;14.90;3.50;;;22.20;63.30;;;;;;4693091;30;96434;-90
2023/03/22 13:27:57;;;;;;;8.73;3.25;;;22.20;62.80;;;;;;4692115;30;94205;-91
2023/03/22 13:30:34;;;;;;;13.73;4.13;;;22.20;62.70;;;;;;4685132;30;93144;-91
2023/03/22 13:33:08;;;;;;;15.30;3.80;;;22.20;61.80;;;;;;4693256;30;92133;-92
2023/03/22 13:35:47;;;;;;;10.75;3.63;;;22.10;61.00;;;;;;4684887;30;96425;-91
2023/03/22 13:48:41;;;;;;;19.27;4.38;;;21.80;58.30;;;;;;4742710;29;92357;-91
2023/03/22 13:51:14;;;;;;;15.05;4.00;;;21.80;58.40;;;;;;4756308;29;95012;-91
2023/03/22 13:54:15;;;;;;;17.02;4.00;;;21.80;58.10;;;;;;4740499;29;92197;-92
2023/03/22 13:56:43;;;;;;;13.20;3.55;;;21.80;57.80;;;;;;4758248;29;92492;-91
2023/03/22 13:59:18;;;;;;;13.65;3.58;;;21.80;57.30;;;;;;4740602;29;95307;-92
2023/03/22 14:02:17;;;;;;;13.43;3.80;;;21.80;57.80;;;;;;4740855;29;96044;-92
2023/03/22 14:04:55;;;;;;;11.40;3.20;;;21.90;57.90;;;;;;4765559;29;92656;-91
2023/03/22 14:07:59;;;;;;;12.20;3.93;;;21.90;58.20;;;;;;4754099;29;92667;-91
2023/03/22 14:10:40;;;;;;;6.93;3.03;;;21.90;58.40;;;;;;4775824;29;96525;-92
2023/03/22 14:13:41;;;;;;;14.00;3.80;;;22.00;58.40;;;;;;4761512;29;94951;-92
2023/03/22 14:16:20;;;;;;;11.35;3.60;;;22.10;58.40;;;;;;4737790;29;92686;-91
2023/03/22 14:18:48;;;;;;;8.23;3.75;;;22.10;58.40;;;;;;4739157;29;91870;-93
2023/03/22 14:21:27;;;;;;;11.05;3.60;;;22.10;58.50;;;;;;4725403;29;95430;-91
2023/03/22 14:23:55;;;;;;;12.20;3.35;;;22.20;58.80;;;;;;4723370;29;94920;-91
2023/03/22 14:26:26;;;;;;;16.33;3.20;;;22.20;59.00;;;;;;4726021;29;93308;-91
2023/03/22 14:28:54;;;;;;;13.13;3.50;;;22.10;59.50;;;;;;4731240;29;95036;-92
2023/03/22 14:31:45;;;;;;;20.73;4.07;;;22.10;60.30;;;;;;4738786;29;95272;-90
2023/03/22 14:34:15;;;;;;;26.60;4.72;;;22.10;61.00;;;;;;4740709;29;95154;-92
2023/03/22 14:36:48;;;;;;;24.35;4.35;;;22.10;61.30;;;;;;4742422;29;92529;-91
2023/03/22 14:39:33;;;;;;;17.52;3.25;;;22.10;62.10;;;;;;4742538;29;92099;-92
2023/03/22 14:42:22;;;;;;;19.42;4.03;;;22.10;62.00;;;;;;4742429;29;95156;-88
2023/03/22 14:44:52;;;;;;;17.90;3.78;;;22.00;61.80;;;;;;4741797;29;96208;-92
2023/03/22 14:47:21;;;;;;;17.15;4.57;;;22.00;62.10;;;;;;4738950;29;92608;-91
2023/03/22 14:50:23;;;;;;;18.07;4.27;;;22.00;62.70;;;;;;4748516;29;92083;-91
2023/03/22 14:52:53;;;;;;;16.85;3.88;;;21.90;62.30;;;;;;4768561;29;100732;-92
2023/03/22 14:55:23;;;;;;;20.65;5.70;;;21.90;62.10;;;;;;4787856;29;97635;-91
2023/03/22 14:57:58;;;;;;;21.40;6.97;;;21.90;61.20;;;;;;4772105;29;91998;-92
2023/03/22 15:00:46;;;;;;;24.73;6.95;;;21.90;60.90;;;;;;4802164;29;92267;-91
2023/03/22 15:03:23;;;;;;;19.53;6.77;;;21.90;60.70;;;;;;4726481;29;96655;-91
2023/03/22 15:05:50;;;;;;;23.83;5.03;;;21.90;60.80;;;;;;4736551;29;96180;-91
2023/03/22 15:08:30;;;;;;;17.90;5.70;;;21.90;61.50;;;;;;4734172;29;92185;-91
2023/03/22 15:11:04;;;;;;;23.42;6.50;;;22.00;61.60;;;;;;4743759;29;93137;-91
2023/03/22 15:13:33;;;;;;;26.92;6.57;;;22.00;61.80;;;;;;4766998;29;96868;-91
2023/03/22 15:16:29;;;;;;;28.60;7.07;;;22.00;62.30;;;;;;4750665;29;96771;-89
2023/03/22 15:18:55;;;;;;;19.10;5.68;;;22.00;62.50;;;;;;4725105;29;93549;-88
2023/03/22 15:21:30;;;;;;;13.77;4.47;;;22.10;61.50;;;;;;4721072;29;92110;-92
2023/03/22 15:24:10;;;;;;;18.48;5.22;;;22.10;60.20;;;;;;4713482;29;96602;-92
2023/03/22 15:29:59;;;;;;;15.57;5.05;;;21.90;59.20;;;;;;4721519;29;92720;-91
2023/03/22 15:32:26;;;;;;;13.75;4.13;;;21.90;59.70;;;;;;4721604;29;92064;-92
2023/03/22 15:34:53;;;;;;;13.57;4.68;;;21.90;59.50;;;;;;4740494;29;95464;-92
2023/03/22 15:37:32;;;;;;;14.27;4.53;;;21.90;59.40;;;;;;4758407;29;95940;-90
2023/03/22 15:40:03;;;;;;;18.25;5.00;;;22.00;59.70;;;;;;4779544;29;92541;-90
2023/03/22 15:46:09;;;;;;;18.48;5.18;;;22.00;59.80;;;;;;4783306;29;93258;-91
2023/03/22 15:48:41;;;;;;;11.05;4.60;;;22.10;60.00;;;;;;4783516;29;96389;-90
2023/03/22 15:51:10;;;;;;;11.75;4.68;;;22.10;60.20;;;;;;4760691;29;92262;-89
2023/03/22 15:53:36;;;;;;;13.07;4.53;;;22.10;60.10;;;;;;4783713;29;92081;-91
2023/03/22 15:56:02;;;;;;;15.98;5.05;;;22.10;59.90;;;;;;4801645;29;95781;-90
2023/03/22 15:58:31;;;;;;;13.18;4.28;;;22.10;59.80;;;;;;4786054;29;96426;-90